createdAt,value
2022-08-17T00:00:43.244Z,20.10
2022-08-17T00:03:13.669Z,20.00
2022-08-17T00:05:49.397Z,20.00
2022-08-17T00:08:19.527Z,20.00
2022-08-17T00:10:47.799Z,19.90
2022-08-17T00:13:25.892Z,19.90
2022-08-17T00:15:58.909Z,20.00
2022-08-17T00:19:01.662Z,20.00
2022-08-17T00:21:23.859Z,20.00
2022-08-17T00:23:53.622Z,20.00
2022-08-17T00:26:43.999Z,20.00
2022-08-17T00:29:09.881Z,20.00
2022-08-17T00:31:47.241Z,19.90
2022-08-17T00:34:14.566Z,19.90
2022-08-17T00:36:41.823Z,19.90
2022-08-17T00:39:09.102Z,20.00
2022-08-17T00:41:36.501Z,19.90
2022-08-17T00:44:10.294Z,19.90
2022-08-17T00:46:44.572Z,19.80
2022-08-17T00:49:13.650Z,19.80
2022-08-17T00:51:44.000Z,19.80
2022-08-17T00:54:33.579Z,19.80
2022-08-17T00:57:15.536Z,19.70
2022-08-17T00:59:51.092Z,19.70
2022-08-17T01:02:30.503Z,19.60
2022-08-17T01:05:02.022Z,19.60
2022-08-17T01:07:29.279Z,19.60
2022-08-17T01:09:56.811Z,19.60
2022-08-17T01:12:24.129Z,19.60
2022-08-17T01:14:51.481Z,19.60
2022-08-17T01:17:18.869Z,19.60
2022-08-17T01:19:46.277Z,19.60
2022-08-17T01:22:14.549Z,19.60
2022-08-17T01:24:45.203Z,19.60
2022-08-17T01:27:14.029Z,19.60
2022-08-17T01:29:44.932Z,19.50
2022-08-17T01:32:12.935Z,19.50
2022-08-17T01:34:43.322Z,19.40
2022-08-17T01:37:18.269Z,19.40
2022-08-17T01:39:58.185Z,19.30
2022-08-17T01:42:56.432Z,19.30
2022-08-17T01:45:27.049Z,19.30
2022-08-17T01:47:55.689Z,19.20
2022-08-17T01:50:27.669Z,19.10
2022-08-17T01:53:00.209Z,19.00
2022-08-17T01:55:37.210Z,19.00
2022-08-17T01:58:09.161Z,19.00
2022-08-17T02:00:46.774Z,19.00
2022-08-17T02:03:27.755Z,19.00
2022-08-17T02:05:55.349Z,18.90
2022-08-17T02:08:38.934Z,18.90
2022-08-17T02:11:14.919Z,18.90
2022-08-17T02:13:46.647Z,18.90
2022-08-17T02:16:15.357Z,18.90
2022-08-17T02:18:42.949Z,18.90
2022-08-17T02:21:11.402Z,18.80
2022-08-17T02:23:43.971Z,18.80
2022-08-17T02:26:24.049Z,18.70
2022-08-17T02:28:54.233Z,18.70
2022-08-17T02:31:21.676Z,18.70
2022-08-17T02:33:56.599Z,18.70
2022-08-17T02:36:33.010Z,18.70
2022-08-17T02:39:07.993Z,18.70
2022-08-17T02:41:35.830Z,18.70
2022-08-17T02:44:03.491Z,18.70
2022-08-17T02:46:31.338Z,18.70
2022-08-17T02:48:59.603Z,18.60
2022-08-17T02:51:27.994Z,18.60
2022-08-17T02:54:38.799Z,18.60
2022-08-17T02:56:43.355Z,18.60
2022-08-17T02:59:10.853Z,18.60
2022-08-17T03:01:38.819Z,18.60
2022-08-17T03:04:06.162Z,18.50
2022-08-17T03:06:33.487Z,18.50
2022-08-17T03:09:00.860Z,18.50
2022-08-17T03:11:28.304Z,18.50
2022-08-17T03:13:55.798Z,18.50
2022-08-17T03:16:23.327Z,18.40
2022-08-17T03:18:50.864Z,18.10
2022-08-17T03:21:18.145Z,18.00
2022-08-17T03:23:45.519Z,18.00
2022-08-17T03:26:15.477Z,18.00
2022-08-17T03:28:43.663Z,18.00
2022-08-17T03:31:10.977Z,18.00
2022-08-17T03:33:38.349Z,18.00
2022-08-17T03:36:06.101Z,17.90
2022-08-17T03:38:38.977Z,18.00
2022-08-17T03:41:07.376Z,18.00
2022-08-17T03:43:35.423Z,18.00
2022-08-17T03:46:34.229Z,18.00
2022-08-17T03:49:26.493Z,18.00
2022-08-17T03:52:13.533Z,18.00
2022-08-17T03:55:00.749Z,18.00
2022-08-17T03:57:28.158Z,18.00
2022-08-17T03:59:56.246Z,18.00
2022-08-17T04:02:32.237Z,18.00
2022-08-17T04:05:00.572Z,18.00
2022-08-17T04:07:31.165Z,18.00
2022-08-17T04:09:59.721Z,18.00
2022-08-17T04:12:31.219Z,18.00
2022-08-17T04:14:59.316Z,18.00
2022-08-17T04:17:28.716Z,18.00
2022-08-17T04:19:56.773Z,18.00
2022-08-17T04:22:32.233Z,18.10
2022-08-17T04:25:21.511Z,18.20
2022-08-17T04:27:49.130Z,18.20
2022-08-17T04:30:16.521Z,18.20
2022-08-17T04:33:07.248Z,18.20
2022-08-17T04:35:48.025Z,18.10
2022-08-17T04:38:22.814Z,18.20
2022-08-17T04:41:09.286Z,18.20
2022-08-17T04:43:38.963Z,18.30
2022-08-17T04:46:10.434Z,18.30
2022-08-17T04:48:41.387Z,18.40
2022-08-17T04:51:12.524Z,18.50
2022-08-17T04:53:42.304Z,18.70
2022-08-17T04:56:15.987Z,18.80
2022-08-17T04:58:46.842Z,18.90
2022-08-17T05:01:15.558Z,19.00
2022-08-17T05:03:44.229Z,19.10
2022-08-17T05:06:11.870Z,19.30
2022-08-17T05:08:39.389Z,19.40
2022-08-17T05:11:06.913Z,19.70
2022-08-17T05:13:34.271Z,20.00
2022-08-17T05:16:05.749Z,20.20
2022-08-17T05:18:33.516Z,20.20
2022-08-17T05:21:01.002Z,20.30
2022-08-17T05:23:42.025Z,20.40
2022-08-17T05:26:25.805Z,20.60
2022-08-17T05:28:55.502Z,20.90
2022-08-17T05:31:24.994Z,21.20
2022-08-17T05:33:53.537Z,21.30
2022-08-17T05:36:43.093Z,21.40
2022-08-17T05:39:08.391Z,21.50
2022-08-17T05:41:42.929Z,21.70
2022-08-17T05:44:10.776Z,21.90
2022-08-17T05:46:42.251Z,22.10
2022-08-17T05:49:10.255Z,22.20
2022-08-17T05:52:13.355Z,22.40
2022-08-17T05:55:37.203Z,22.60
2022-08-17T05:58:10.311Z,22.80
2022-08-17T06:00:51.934Z,22.90
2022-08-17T06:03:37.931Z,23.00
2022-08-17T06:06:42.475Z,23.30
2022-08-17T06:09:26.646Z,23.50
2022-08-17T06:12:24.931Z,23.80
2022-08-17T06:15:11.115Z,24.00
2022-08-17T06:17:39.350Z,24.20
2022-08-17T06:20:12.008Z,24.30
2022-08-17T06:22:46.582Z,24.60
2022-08-17T06:25:35.250Z,24.80
2022-08-17T06:28:08.999Z,25.00
2022-08-17T06:31:07.388Z,25.20
2022-08-17T06:33:39.665Z,25.40
2022-08-17T06:36:36.202Z,25.70
2022-08-17T06:39:18.689Z,25.90
2022-08-17T06:41:49.841Z,26.20
2022-08-17T06:44:43.708Z,26.50
2022-08-17T06:47:33.850Z,26.70
2022-08-17T06:50:08.523Z,26.80
2022-08-17T06:52:47.496Z,27.10
2022-08-17T06:55:26.501Z,27.40
2022-08-17T06:57:59.441Z,27.40
2022-08-17T07:00:40.986Z,27.30
2022-08-17T07:03:38.166Z,27.40
2022-08-17T07:06:14.692Z,27.50
2022-08-17T07:08:51.115Z,27.70
2022-08-17T07:11:51.276Z,27.80
2022-08-17T07:14:53.356Z,28.00
2022-08-17T07:17:46.372Z,28.00
2022-08-17T07:20:15.386Z,28.10
2022-08-17T07:23:13.935Z,28.40
2022-08-17T07:25:41.324Z,28.60
2022-08-17T07:28:08.652Z,28.70
2022-08-17T07:30:51.592Z,28.90
2022-08-17T07:33:28.992Z,29.10
2022-08-17T07:35:58.777Z,29.50
2022-08-17T07:38:34.777Z,29.90
2022-08-17T07:41:06.538Z,30.10
2022-08-17T07:43:40.194Z,30.50
2022-08-17T07:46:41.950Z,30.60
2022-08-17T07:49:14.938Z,30.80
2022-08-17T07:51:47.933Z,31.00
2022-08-17T07:54:22.743Z,31.10
2022-08-17T07:56:54.944Z,31.00
2022-08-17T07:59:28.609Z,31.20
2022-08-17T08:02:04.017Z,31.40
2022-08-17T08:07:32.283Z,31.50
2022-08-17T08:10:01.630Z,31.60
2022-08-17T08:12:44.504Z,31.40
2022-08-17T08:15:18.963Z,31.70
2022-08-17T08:17:58.819Z,32.00
2022-08-17T08:21:00.692Z,32.30
2022-08-17T08:23:59.875Z,32.60
2022-08-17T08:26:48.287Z,32.90
2022-08-17T08:29:40.232Z,33.00
2022-08-17T08:32:20.782Z,33.30
2022-08-17T08:35:08.717Z,33.40
2022-08-17T08:37:56.450Z,33.30
2022-08-17T08:40:46.759Z,33.50
2022-08-17T08:43:25.037Z,33.70
2022-08-17T08:46:25.601Z,34.00
2022-08-17T08:49:10.239Z,34.20
2022-08-17T08:51:51.609Z,34.20
2022-08-17T08:54:52.408Z,34.40
2022-08-17T08:57:53.801Z,34.20
2022-08-17T09:00:24.187Z,34.20
2022-08-17T09:03:20.313Z,34.30
2022-08-17T09:06:37.399Z,34.40
2022-08-17T09:09:42.378Z,34.70
2022-08-17T09:12:20.340Z,34.90
2022-08-17T09:14:56.690Z,35.30
2022-08-17T09:19:02.231Z,35.20
2022-08-17T09:21:18.082Z,35.10
2022-08-17T09:24:20.660Z,35.20
2022-08-17T09:27:03.204Z,35.60
2022-08-17T09:29:35.505Z,35.70
2022-08-17T09:32:12.991Z,35.60
2022-08-17T09:34:55.092Z,35.90
2022-08-17T09:37:43.275Z,35.90
2022-08-17T09:40:15.213Z,35.70
2022-08-17T09:43:04.777Z,35.90
2022-08-17T09:45:51.643Z,36.00
2022-08-17T09:48:31.413Z,35.90
2022-08-17T09:51:18.844Z,36.30
2022-08-17T09:53:46.266Z,36.40
2022-08-17T09:56:34.943Z,36.30
2022-08-17T09:59:17.341Z,36.50
2022-08-17T10:02:26.563Z,36.20
2022-08-17T10:05:07.902Z,36.30
2022-08-17T10:07:55.906Z,36.20
2022-08-17T10:10:36.167Z,36.40
2022-08-17T10:13:18.817Z,36.90
2022-08-17T10:16:09.405Z,37.30
2022-08-17T10:19:21.135Z,37.40
2022-08-17T10:22:14.927Z,37.70
2022-08-17T10:25:21.870Z,37.80
2022-08-17T10:28:05.732Z,38.10
2022-08-17T10:30:43.808Z,38.40
2022-08-17T10:33:28.373Z,38.50
2022-08-17T10:35:58.462Z,38.30
2022-08-17T10:38:31.929Z,37.90
2022-08-17T10:41:06.176Z,37.80
2022-08-17T10:44:40.357Z,37.70
2022-08-17T10:47:12.105Z,37.60
2022-08-17T10:49:54.453Z,38.00
2022-08-17T10:52:27.700Z,38.90
2022-08-17T10:54:58.768Z,39.30
2022-08-17T10:57:42.952Z,39.60
2022-08-17T11:00:16.095Z,39.50
2022-08-17T11:02:50.674Z,39.20
2022-08-17T11:05:55.839Z,39.30
2022-08-17T11:08:43.495Z,39.60
2022-08-17T11:11:39.210Z,39.70
2022-08-17T11:14:21.683Z,39.60
2022-08-17T11:17:11.545Z,39.60
2022-08-17T11:19:45.288Z,39.80
2022-08-17T11:22:34.343Z,40.20
2022-08-17T11:25:16.271Z,40.60
2022-08-17T11:27:45.563Z,40.10
2022-08-17T11:30:21.097Z,39.20
2022-08-17T11:32:54.634Z,38.00
2022-08-17T11:35:22.549Z,37.40
2022-08-17T11:38:16.018Z,37.70
2022-08-17T11:41:05.079Z,38.40
2022-08-17T11:44:02.052Z,39.10
2022-08-17T11:47:00.495Z,39.70
2022-08-17T11:49:58.814Z,40.20
2022-08-17T11:52:45.983Z,40.70
2022-08-17T11:55:40.745Z,40.90
2022-08-17T11:58:30.031Z,41.10
2022-08-17T12:01:02.260Z,40.10
2022-08-17T12:03:32.258Z,40.30
2022-08-17T12:06:17.775Z,40.50
2022-08-17T12:08:55.159Z,40.70
2022-08-17T12:12:13.639Z,40.80
2022-08-17T12:17:41.328Z,39.90
2022-08-17T12:20:15.279Z,39.30
2022-08-17T12:23:17.687Z,37.90
2022-08-17T12:25:51.111Z,37.20
2022-08-17T12:28:30.579Z,37.40
2022-08-17T12:31:08.089Z,37.40
2022-08-17T12:33:37.843Z,37.30
2022-08-17T12:36:08.951Z,37.20
2022-08-17T12:38:38.572Z,37.00
2022-08-17T12:41:26.695Z,36.80
2022-08-17T12:44:19.540Z,36.70
2022-08-17T12:46:53.090Z,36.50
2022-08-17T12:49:30.948Z,36.40
2022-08-17T12:52:25.244Z,36.30
2022-08-17T12:55:03.335Z,36.30
2022-08-17T12:57:39.746Z,36.00
2022-08-17T13:00:17.967Z,35.80
2022-08-17T13:02:50.526Z,35.70
2022-08-17T13:05:36.379Z,35.70
2022-08-17T13:08:18.958Z,35.60
2022-08-17T13:10:57.166Z,35.60
2022-08-17T13:13:35.268Z,35.60
2022-08-17T13:16:04.768Z,35.40
2022-08-17T13:18:34.863Z,35.20
2022-08-17T13:21:02.592Z,35.20
2022-08-17T13:23:32.443Z,35.30
2022-08-17T13:26:16.164Z,35.20
2022-08-17T13:28:51.925Z,35.10
2022-08-17T13:31:28.284Z,35.00
2022-08-17T13:34:19.054Z,34.90
2022-08-17T13:36:47.960Z,34.90
2022-08-17T13:39:24.056Z,34.80
2022-08-17T13:41:54.173Z,34.80
2022-08-17T13:44:40.737Z,34.80
2022-08-17T13:47:20.179Z,34.80
2022-08-17T13:49:49.235Z,34.70
2022-08-17T13:52:52.366Z,34.70
2022-08-17T13:55:23.072Z,34.60
2022-08-17T13:58:05.070Z,34.60
2022-08-17T14:00:36.834Z,34.80
2022-08-17T14:03:05.795Z,35.00
2022-08-17T14:05:38.062Z,35.10
2022-08-17T14:08:07.216Z,35.20
2022-08-17T14:10:36.772Z,35.20
2022-08-17T14:13:05.055Z,35.10
2022-08-17T14:15:56.108Z,35.10
2022-08-17T14:18:34.272Z,35.10
2022-08-17T14:21:09.007Z,35.10
2022-08-17T14:23:37.467Z,35.10
2022-08-17T14:26:05.501Z,34.90
2022-08-17T14:28:32.840Z,34.80
2022-08-17T14:31:03.815Z,34.60
2022-08-17T14:33:31.114Z,34.60
2022-08-17T14:35:58.449Z,34.70
2022-08-17T14:38:26.098Z,34.70
2022-08-17T14:40:54.096Z,34.80
2022-08-17T14:43:21.518Z,34.80
2022-08-17T14:45:49.185Z,34.70
2022-08-17T14:48:17.414Z,34.70
2022-08-17T14:50:46.448Z,34.60
2022-08-17T14:53:16.003Z,34.60
2022-08-17T14:55:46.895Z,34.40
2022-08-17T14:58:14.640Z,34.30
2022-08-17T15:00:46.425Z,34.20
2022-08-17T15:03:14.801Z,34.10
2022-08-17T15:05:44.440Z,34.00
2022-08-17T15:08:11.792Z,33.90
2022-08-17T15:10:39.495Z,33.90
2022-08-17T15:13:20.196Z,33.80
2022-08-17T15:15:48.576Z,33.80
2022-08-17T15:18:16.564Z,33.70
2022-08-17T15:20:45.163Z,33.70
2022-08-17T15:23:16.960Z,33.60
2022-08-17T15:25:45.322Z,33.70
2022-08-17T15:28:12.837Z,33.90
2022-08-17T15:30:44.993Z,34.00
2022-08-17T15:33:17.764Z,34.00
2022-08-17T15:35:45.652Z,34.00
2022-08-17T15:38:13.639Z,33.90
2022-08-17T15:40:46.683Z,33.90
2022-08-17T15:43:20.117Z,33.70
2022-08-17T15:46:02.159Z,33.60
2022-08-17T15:48:44.023Z,33.50
2022-08-17T15:51:16.355Z,33.40
2022-08-17T15:53:46.875Z,33.20
2022-08-17T15:56:15.187Z,33.20
2022-08-17T15:58:44.451Z,33.10
2022-08-17T16:01:17.003Z,33.00
2022-08-17T16:04:04.213Z,33.00
2022-08-17T16:06:32.344Z,32.90
2022-08-17T16:09:00.710Z,32.80
2022-08-17T16:11:27.996Z,32.80
2022-08-17T16:13:56.147Z,32.70
2022-08-17T16:16:24.743Z,32.70
2022-08-17T16:18:53.684Z,32.60
2022-08-17T16:21:27.082Z,32.60
2022-08-17T16:24:05.133Z,32.60
2022-08-17T16:26:40.847Z,32.50
2022-08-17T16:29:08.394Z,32.50
2022-08-17T16:31:37.822Z,32.50
2022-08-17T16:34:16.970Z,32.40
2022-08-17T16:36:55.092Z,32.50
2022-08-17T16:39:29.544Z,32.50
2022-08-17T16:41:57.654Z,32.60
2022-08-17T16:44:27.796Z,32.60
2022-08-17T16:46:55.112Z,32.60
2022-08-17T16:49:36.238Z,32.50
2022-08-17T16:52:08.059Z,32.50
2022-08-17T16:54:38.567Z,32.50
2022-08-17T16:57:05.912Z,32.50
2022-08-17T16:59:41.138Z,32.40
2022-08-17T17:02:13.671Z,32.30
2022-08-17T17:04:48.411Z,32.20
2022-08-17T17:07:26.029Z,32.10
2022-08-17T17:09:56.071Z,32.00
2022-08-17T17:13:01.130Z,31.80
2022-08-17T17:15:13.111Z,31.70
2022-08-17T17:17:41.969Z,31.60
2022-08-17T17:20:23.147Z,31.50
2022-08-17T17:23:39.428Z,31.40
2022-08-17T17:26:34.598Z,31.30
2022-08-17T17:29:25.968Z,31.20
2022-08-17T17:32:17.296Z,31.10
2022-08-17T17:34:51.004Z,31.00
2022-08-17T17:37:34.834Z,30.90
2022-08-17T17:40:13.109Z,30.80
2022-08-17T17:42:42.473Z,30.70
2022-08-17T17:45:31.575Z,30.50
2022-08-17T17:47:58.954Z,30.40
2022-08-17T17:50:36.753Z,30.20
2022-08-17T17:53:12.933Z,30.10
2022-08-17T17:55:50.832Z,30.00
2022-08-17T17:58:42.937Z,29.90
2022-08-17T18:01:19.360Z,29.80
2022-08-17T18:04:15.671Z,29.70
2022-08-17T18:07:12.457Z,29.60
2022-08-17T18:10:01.120Z,29.50
2022-08-17T18:12:46.407Z,29.30
2022-08-17T18:15:36.561Z,29.20
2022-08-17T18:18:40.019Z,29.10
2022-08-17T18:21:19.623Z,28.90
2022-08-17T18:24:01.571Z,28.90
2022-08-17T18:26:56.672Z,28.80
2022-08-17T18:29:34.612Z,28.60
2022-08-17T18:32:26.814Z,28.50
2022-08-17T18:34:57.866Z,28.40
2022-08-17T18:37:43.201Z,28.30
2022-08-17T18:40:19.882Z,28.20
2022-08-17T18:43:00.499Z,28.10
2022-08-17T18:45:47.253Z,28.00
2022-08-17T18:48:28.706Z,28.00
2022-08-17T18:51:18.340Z,27.90
2022-08-17T18:53:46.352Z,27.90
2022-08-17T18:56:36.395Z,27.80
2022-08-17T18:59:12.253Z,27.80
2022-08-17T19:02:05.071Z,27.60
2022-08-17T19:05:11.312Z,27.60
2022-08-17T19:07:45.340Z,27.40
2022-08-17T19:10:22.034Z,27.20
2022-08-17T19:12:55.528Z,27.10
2022-08-17T19:15:36.226Z,27.00
2022-08-17T19:18:36.329Z,26.90
2022-08-17T19:21:24.472Z,26.80
2022-08-17T19:23:59.857Z,26.70
2022-08-17T19:26:54.010Z,26.60
2022-08-17T19:29:47.153Z,26.60
2022-08-17T19:32:17.820Z,26.50
2022-08-17T19:34:45.202Z,26.40
2022-08-17T19:37:33.241Z,26.30
2022-08-17T19:40:41.767Z,26.20
2022-08-17T19:43:23.715Z,26.20
2022-08-17T19:46:07.372Z,26.10
2022-08-17T19:49:13.047Z,26.00
2022-08-17T19:51:49.300Z,25.90
2022-08-17T19:54:25.178Z,25.60
2022-08-17T19:57:13.860Z,25.60
2022-08-17T20:00:11.232Z,25.50
2022-08-17T20:03:05.919Z,25.50
2022-08-17T20:06:11.567Z,25.40
2022-08-17T20:08:48.417Z,25.30
2022-08-17T20:11:28.512Z,25.20
2022-08-17T20:14:10.134Z,25.20
2022-08-17T20:16:37.442Z,25.20
2022-08-17T20:19:06.831Z,25.10
2022-08-17T20:21:59.255Z,25.00
2022-08-17T20:24:46.877Z,24.80
2022-08-17T20:27:31.581Z,24.70
2022-08-17T20:30:02.132Z,24.70
2022-08-17T20:32:35.806Z,24.70
2022-08-17T20:35:21.725Z,24.70
2022-08-17T20:38:09.037Z,24.60
2022-08-17T20:40:56.416Z,24.60
2022-08-17T20:43:32.998Z,24.60
2022-08-17T20:46:05.620Z,24.60
2022-08-17T20:48:39.710Z,24.60
2022-08-17T20:51:42.108Z,24.60
2022-08-17T20:54:31.687Z,24.60
2022-08-17T20:57:01.187Z,24.50
2022-08-17T20:59:30.664Z,24.50
2022-08-17T21:02:18.483Z,24.50
2022-08-17T21:05:01.022Z,24.50
2022-08-17T21:07:42.945Z,24.50
2022-08-17T21:10:23.751Z,24.40
2022-08-17T21:13:16.714Z,24.30
2022-08-17T21:15:55.068Z,24.30
2022-08-17T21:18:23.536Z,24.20
2022-08-17T21:21:14.064Z,24.10
2022-08-17T21:23:56.238Z,23.90
2022-08-17T21:26:50.491Z,23.60
2022-08-17T21:29:32.531Z,23.10
2022-08-17T21:32:05.311Z,22.80
2022-08-17T21:34:36.760Z,22.80
2022-08-17T21:37:30.481Z,22.90
2022-08-17T21:40:02.532Z,23.00
2022-08-17T21:42:34.798Z,23.00
2022-08-17T21:45:21.544Z,23.00
2022-08-17T21:47:51.396Z,23.00
2022-08-17T21:50:25.406Z,23.10
2022-08-17T21:52:54.769Z,23.10
2022-08-17T21:55:30.121Z,23.10
2022-08-17T21:58:13.518Z,23.10
2022-08-17T22:00:44.947Z,23.00
2022-08-17T22:03:24.592Z,23.00
2022-08-17T22:05:52.291Z,22.90
2022-08-17T22:08:22.835Z,22.90
2022-08-17T22:10:51.741Z,22.90
2022-08-17T22:13:23.436Z,22.80
2022-08-17T22:16:15.640Z,22.80
2022-08-17T22:18:54.904Z,22.80
2022-08-17T22:21:22.454Z,22.70
2022-08-17T22:24:05.392Z,22.70
2022-08-17T22:27:03.238Z,22.60
2022-08-17T22:29:58.422Z,22.60
2022-08-17T22:32:44.922Z,22.60
2022-08-17T22:35:31.654Z,22.60
2022-08-17T22:38:20.799Z,22.50
2022-08-17T22:40:54.954Z,22.50
2022-08-17T22:43:26.361Z,22.50
2022-08-17T22:45:57.709Z,22.50
2022-08-17T22:48:28.409Z,22.50
2022-08-17T22:51:14.546Z,22.50
2022-08-17T22:54:10.391Z,22.50
2022-08-17T22:56:57.328Z,22.50
2022-08-17T22:59:47.809Z,22.40
2022-08-17T23:02:28.298Z,22.40
2022-08-17T23:05:11.764Z,22.40
2022-08-17T23:07:40.090Z,22.30
2022-08-17T23:10:10.325Z,22.30
2022-08-17T23:12:41.129Z,22.20
2022-08-17T23:15:16.909Z,22.20
2022-08-17T23:17:45.383Z,22.20
2022-08-17T23:20:15.326Z,22.10
2022-08-17T23:22:51.288Z,22.00
2022-08-17T23:25:27.507Z,22.00
2022-08-17T23:27:55.582Z,21.90
2022-08-17T23:30:25.870Z,21.90
2022-08-17T23:32:54.677Z,21.80
2022-08-17T23:35:40.080Z,21.90
2022-08-17T23:38:12.577Z,21.80
2022-08-17T23:40:40.891Z,21.70
2022-08-17T23:43:23.709Z,21.70
2022-08-17T23:46:01.248Z,21.70
2022-08-17T23:48:35.678Z,21.70
2022-08-17T23:51:08.907Z,21.70
2022-08-17T23:53:39.203Z,21.60
2022-08-17T23:56:10.169Z,21.60
2022-08-17T23:58:43.585Z,21.60
